Sabahat Telli — TCSQ6 — position and weather

sailwx.info

Track history (hours):
 
Tides and Currents Weather Stations Pressure Air Temp Water Temp Dewpoint Dewpoint Depression Visibility Wind Speed Wind Dir Waves Ship Positions

Sabahat Telli

Last reported at 2015-Jan-29 06:22 UTC. Time now 2015-Jan-30 09:30 UTC.
Position N 41°30' E 029°40'.

Length 99 m; draft 4.6 m.

Type: Tanker. MMSI: 271000961.

Date/timePositionNaut miles runAvg speedWind from/ knotsBaromVisibWave heightAir tempDewpointWater temp
2015-Jan-29 06:22N 41°30' E 029°40'911.7
2015-Jan-29 05:33N 41°25' E 029°30'1211.9
2015-Jan-29 04:34N 41°18' E 029°17'22 9.8
2015-Jan-29 02:19N 41°00' E 028°60'6 7.4
2015-Jan-29 01:29N 40°55' E 028°55'2 0.5
2015-Jan-28 21:32N 40°57' E 028°53'0 0.0
2015-Jan-28 19:31N 40°57' E 028°53'3 0.9
2015-Jan-28 16:33N 40°56' E 028°56'1111.1
2015-Jan-28 15:33N 40°48' E 029°07'1211.6
2015-Jan-28 14:33N 40°45' E 029°21'  
2015-Jan-20 06:22N 46°37' E 031°01'0 0.0
2015-Jan-19 10:04N 46°37' E 031°01'0 0.0
2015-Jan-19 09:19N 46°37' E 031°01'0 0.0
2015-Jan-19 07:24N 46°37' E 031°01'  
Track history (hours):
 
Tides and Currents Weather Stations Pressure Air Temp Water Temp Dewpoint Dewpoint Depression Visibility Wind Speed Wind Dir Waves Ship Positions

Sabahat Telli

Last reported at 2015-Jan-29 06:22 UTC. Time now 2015-Jan-30 09:30 UTC.
Position N 41°30' E 029°40'.

Length 99 m; draft 4.6 m.

Type: Tanker. MMSI: 271000961.

Date/timePositionNaut miles runAvg speedWind from/ knotsBaromVisibWave heightAir tempDewpointWater temp
2015-Jan-29 06:22N 41°30' E 029°40'911.7
2015-Jan-29 05:33N 41°25' E 029°30'1211.9
2015-Jan-29 04:34N 41°18' E 029°17'22 9.8
2015-Jan-29 02:19N 41°00' E 028°60'6 7.4
2015-Jan-29 01:29N 40°55' E 028°55'2 0.5
2015-Jan-28 21:32N 40°57' E 028°53'0 0.0
2015-Jan-28 19:31N 40°57' E 028°53'3 0.9
2015-Jan-28 16:33N 40°56' E 028°56'1111.1
2015-Jan-28 15:33N 40°48' E 029°07'1211.6
2015-Jan-28 14:33N 40°45' E 029°21'  
2015-Jan-20 06:22N 46°37' E 031°01'0 0.0
2015-Jan-19 10:04N 46°37' E 031°01'0 0.0
2015-Jan-19 09:19N 46°37' E 031°01'0 0.0
2015-Jan-19 07:24N 46°37' E 031°01'  

Dump ship's entire track history